Time;durP1;ratioP1;P1;durP2;ratioP2;P2;SDS_P1;SDS_P2;PMS_P1;PMS_P2;Temp;Humidity;BMP_temperature;BMP_pressure;BME280_temperature;BME280_humidity;BME280_pressure;Samples;Min_cycle;Max_cycle;Signal;HPM_P1;HPM_P2
2021/12/30 00:01:39;;;;;;;;;;;;;;;2.25;96.16;99011.06;5011579;28;960;-73
2021/12/30 00:04:06;;;;;;;;;;;;;;;2.25;96.01;98972.91;5011374;28;906;-75
2021/12/30 00:06:39;;;;;;;;;;;;;;;2.25;96.19;98994.72;5011560;28;1945;-74
2021/12/30 00:09:07;;;;;;;;;;;;;;;2.27;96.47;99048.09;5012027;28;800;-75
2021/12/30 00:11:39;;;;;;;;;;;;;;;2.19;96.40;99014.47;4993304;28;1359;-75
2021/12/30 00:14:06;;;;;;;;;;;;;;;2.21;95.93;98987.63;5012048;28;801;-74
2021/12/30 00:16:33;;;;;;;;;;;;;;;2.21;96.41;99031.25;5011171;28;836;-74
2021/12/30 00:18:59;;;;;;;;;;;;;;;2.13;96.67;99029.56;5012130;28;789;-76
2021/12/30 00:21:26;;;;;;;;;;;;;;;2.15;95.42;99019.84;4993657;28;890;-76
2021/12/30 00:23:53;;;;;;;;;;;;;;;2.12;95.62;99047.09;4993887;28;1166;-74
2021/12/30 00:26:19;;;;;;;;;;;;;;;2.08;96.25;99018.97;4993535;28;1882;-75
2021/12/30 00:28:46;;;;;;;;;;;;;;;2.09;96.71;99026.78;4993636;28;1577;-75
2021/12/30 00:31:14;;;;;;;;;;;;;;;2.07;96.26;99033.75;4993741;28;1168;-73
2021/12/30 00:33:41;;;;;;;;;;;;;;;2.03;96.89;99039.16;5011144;28;848;-73
2021/12/30 00:36:08;;;;;;;;;;;;;;;2.02;96.38;99045.75;5011066;28;840;-73
2021/12/30 00:38:36;;;;;;;;;;;;;;;1.96;96.09;99028.09;5011031;28;852;-74
2021/12/30 00:41:03;;;;;;;;;;;;;;;1.94;96.96;99039.41;4994180;28;1253;-73
2021/12/30 00:43:29;;;;;;;;;;;;;;;1.93;96.53;99023.41;4997251;28;1038;-73
2021/12/30 00:45:57;;;;;;;;;;;;;;;1.93;97.11;99037.03;5014595;28;1902;-73
2021/12/30 00:48:23;;;;;;;;;;;;;;;1.93;96.28;99050.66;4996808;28;1340;-72
2021/12/30 00:50:50;;;;;;;;;;;;;;;1.91;96.37;98991.06;5014490;28;816;-72
2021/12/30 00:53:16;;;;;;;;;;;;;;;1.95;96.11;99030.06;5014255;28;754;-76
2021/12/30 00:55:43;;;;;;;;;;;;;;;1.91;96.67;99051.00;4996687;28;1136;-72
2021/12/30 00:58:10;;;;;;;;;;;;;;;1.94;96.72;99053.03;5014427;28;880;-73
2021/12/30 01:00:37;;;;;;;;;;;;;;;1.95;95.61;99035.50;5014487;28;773;-73
2021/12/30 01:03:04;;;;;;;;;;;;;;;1.94;96.36;99027.69;4996749;28;1423;-75
2021/12/30 01:05:30;;;;;;;;;;;;;;;1.94;95.96;99020.31;4996682;28;1964;-73
2021/12/30 01:07:56;;;;;;;;;;;;;;;1.92;96.76;99055.31;5014108;28;828;-73
2021/12/30 01:10:23;;;;;;;;;;;;;;;1.86;96.86;99040.41;5014057;28;1089;-72
2021/12/30 01:12:50;;;;;;;;;;;;;;;1.81;97.19;99041.50;5013972;28;844;-72
2021/12/30 01:15:19;;;;;;;;;;;;;;;1.84;96.51;99042.72;4996590;28;848;-73
2021/12/30 01:20:15;;;;;;;;;;;;;;;1.80;96.81;99037.19;5013907;28;613;-73
2021/12/30 01:22:41;;;;;;;;;;;;;;;1.78;96.24;99085.81;5013985;28;836;-73
2021/12/30 01:25:09;;;;;;;;;;;;;;;1.75;95.98;99026.59;5013808;28;844;-74
2021/12/30 01:27:36;;;;;;;;;;;;;;;1.80;96.22;99061.72;5013592;28;2003;-74
2021/12/30 01:30:04;;;;;;;;;;;;;;;1.82;96.53;99050.47;4996085;28;1374;-73
2021/12/30 01:32:31;;;;;;;;;;;;;;;1.78;96.39;99053.13;4996150;28;854;-74
2021/12/30 01:34:59;;;;;;;;;;;;;;;1.73;97.10;99067.03;5013955;28;880;-73
2021/12/30 01:37:25;;;;;;;;;;;;;;;1.68;97.09;99067.31;4996149;28;829;-73
2021/12/30 01:39:53;;;;;;;;;;;;;;;1.72;97.11;99070.91;5013721;28;816;-74
2021/12/30 01:42:20;;;;;;;;;;;;;;;1.74;96.92;99051.47;5013514;28;936;-74
2021/12/30 01:44:47;;;;;;;;;;;;;;;1.70;96.80;99062.31;5013425;28;885;-73
2021/12/30 01:47:14;;;;;;;;;;;;;;;1.65;96.88;99048.97;5013659;28;1970;-73
2021/12/30 01:49:39;;;;;;;;;;;;;;;1.40;96.58;99030.22;5013534;28;860;-73
2021/12/30 01:52:06;;;;;;;;;;;;;;;1.63;96.62;99049.34;5013205;28;857;-74
2021/12/30 01:54:34;;;;;;;;;;;;;;;1.67;96.67;99064.97;5013487;28;841;-74
2021/12/30 01:57:03;;;;;;;;;;;;;;;1.59;95.76;99067.53;4995895;28;1354;-71
2021/12/30 01:59:30;;;;;;;;;;;;;;;1.59;96.74;99042.25;5013046;28;864;-70
2021/12/30 02:01:57;;;;;;;;;;;;;;;1.57;96.20;99053.50;4995565;28;1361;-70
2021/12/30 02:04:24;;;;;;;;;;;;;;;1.54;96.57;99042.56;5013146;28;841;-73
2021/12/30 02:06:52;;;;;;;;;;;;;;;1.56;96.47;99071.00;4995798;28;1878;-73
2021/12/30 02:09:31;;;;;;;;;;;;;;;1.54;95.98;99037.09;5012909;28;884;-75
2021/12/30 02:11:57;;;;;;;;;;;;;;;1.52;95.45;99040.19;4995620;28;1122;-71
2021/12/30 02:15:20;;;;;;;;;;;;;;;1.58;96.20;99024.31;4995193;28;2070;-81
2021/12/30 02:17:27;;;;;;;;;;;;;;;1.53;95.52;99049.13;4998331;28;1296;-72
2021/12/30 02:20:01;;;;;;;;;;;;;;;1.49;96.38;99073.56;5008942;28;1119;-75
2021/12/30 02:22:39;;;;;;;;;;;;;;;1.46;96.53;99025.28;4995079;28;1310;-75
2021/12/30 02:25:07;;;;;;;;;;;;;;;1.47;96.62;99054.06;5012790;28;857;-72
2021/12/30 02:27:34;;;;;;;;;;;;;;;1.41;96.53;99034.53;4995039;28;1922;-75
2021/12/30 02:30:01;;;;;;;;;;;;;;;1.41;95.96;99023.63;5012322;28;1417;-73
2021/12/30 02:32:27;;;;;;;;;;;;;;;1.38;96.25;99058.97;5012479;28;874;-70
2021/12/30 02:34:54;;;;;;;;;;;;;;;1.36;95.88;99034.03;5012517;28;848;-71
2021/12/30 02:37:21;;;;;;;;;;;;;;;1.31;96.05;99031.59;5012451;28;828;-73
2021/12/30 02:39:53;;;;;;;;;;;;;;;1.34;96.47;99037.09;5012476;28;1002;-71
2021/12/30 02:42:26;;;;;;;;;;;;;;;1.32;95.98;99066.63;5012368;28;880;-75
2021/12/30 02:44:52;;;;;;;;;;;;;;;1.29;96.29;99047.50;5012130;28;876;-75
2021/12/30 02:47:19;;;;;;;;;;;;;;;1.28;96.91;99045.91;5012164;28;1975;-75
2021/12/30 02:49:45;;;;;;;;;;;;;;;1.25;96.02;99058.31;5012400;28;899;-71
2021/12/30 02:52:11;;;;;;;;;;;;;;;1.23;96.60;99074.22;5012219;28;904;-71
2021/12/30 02:54:41;;;;;;;;;;;;;;;1.23;95.99;99049.72;5012140;28;896;-69
2021/12/30 02:57:09;;;;;;;;;;;;;;;1.25;96.33;99052.88;5012146;28;805;-69
2021/12/30 02:59:36;;;;;;;;;;;;;;;1.27;95.68;99083.25;4994384;28;1220;-71
2021/12/30 03:02:03;;;;;;;;;;;;;;;1.28;95.19;99054.91;4994532;28;1441;-71
2021/12/30 03:04:30;;;;;;;;;;;;;;;1.29;95.40;99080.19;5011494;28;892;-74
2021/12/30 03:06:58;;;;;;;;;;;;;;;1.26;94.33;99078.16;5011903;28;1934;-73
2021/12/30 03:09:24;;;;;;;;;;;;;;;1.21;95.05;99084.69;5011951;28;884;-75
2021/12/30 03:11:51;;;;;;;;;;;;;;;1.22;94.44;99045.44;5012106;28;836;-74
2021/12/30 03:14:17;;;;;;;;;;;;;;;1.25;94.41;99082.03;5011805;28;869;-75
2021/12/30 03:16:44;;;;;;;;;;;;;;;1.21;94.45;99101.78;4994545;28;825;-71
2021/12/30 03:31:22;;;;;;;;;;;;;;;1.19;94.16;99095.13;5007148;28;1689;-72
2021/12/30 03:33:51;;;;;;;;;;;;;;;1.20;94.62;99141.06;4994204;28;884;-76
2021/12/30 03:36:22;;;;;;;;;;;;;;;1.21;93.67;99120.84;5011595;28;1147;-74
2021/12/30 03:38:49;;;;;;;;;;;;;;;1.25;93.36;99079.31;4994251;28;1251;-69
2021/12/30 03:41:18;;;;;;;;;;;;;;;1.24;93.24;99092.16;5011751;28;820;-70
2021/12/30 03:43:43;;;;;;;;;;;;;;;1.27;93.07;99109.69;5012078;28;782;-71
2021/12/30 03:49:18;;;;;;;;;;;;;;;1.32;92.31;99120.28;5011590;28;635;-68
2021/12/30 03:51:45;;;;;;;;;;;;;;;1.38;92.11;99137.94;5011566;28;833;-68
2021/12/30 03:54:10;;;;;;;;;;;;;;;1.32;91.88;99142.84;5011414;28;920;-70
2021/12/30 03:56:36;;;;;;;;;;;;;;;1.25;91.93;99194.44;4993918;28;1431;-69
2021/12/30 03:59:03;;;;;;;;;;;;;;;1.16;93.06;99125.81;4993842;28;1403;-70
